createdAt,value
2018-05-11T00:00:05.321Z,13.10
2018-05-11T00:02:32.743Z,13.10
2018-05-11T00:05:00.162Z,13.10
2018-05-11T00:07:27.590Z,13.10
2018-05-11T00:09:55.024Z,13.10
2018-05-11T00:12:22.443Z,13.10
2018-05-11T00:14:49.866Z,13.10
2018-05-11T00:17:17.298Z,13.10
2018-05-11T00:19:44.718Z,13.20
2018-05-11T00:22:12.923Z,13.30
2018-05-11T00:24:40.338Z,13.30
2018-05-11T00:27:07.764Z,13.20
2018-05-11T00:29:35.199Z,13.20
2018-05-11T00:32:02.626Z,13.30
2018-05-11T00:34:30.818Z,13.30
2018-05-11T00:36:58.250Z,13.30
2018-05-11T00:39:26.435Z,13.10
2018-05-11T00:41:53.863Z,13.10
2018-05-11T00:44:21.454Z,13.20
2018-05-11T00:46:48.923Z,13.20
2018-05-11T00:49:16.554Z,13.30
2018-05-11T00:51:44.099Z,13.30
2018-05-11T00:54:11.514Z,13.30
2018-05-11T00:56:38.983Z,13.40
2018-05-11T00:59:06.638Z,13.50
2018-05-11T01:01:34.091Z,13.50
2018-05-11T01:04:01.516Z,13.50
2018-05-11T01:06:28.945Z,13.50
2018-05-11T01:08:56.370Z,13.40
2018-05-11T01:11:23.804Z,13.40
2018-05-11T01:13:51.276Z,13.30
2018-05-11T01:16:18.790Z,13.20
2018-05-11T01:18:46.127Z,13.30
2018-05-11T01:21:13.614Z,13.30
2018-05-11T01:23:41.075Z,13.30
2018-05-11T01:26:08.502Z,13.30
2018-05-11T01:28:36.691Z,13.30
2018-05-11T01:31:04.118Z,13.30
2018-05-11T01:33:31.537Z,13.40
2018-05-11T01:35:58.966Z,13.40
2018-05-11T01:38:26.394Z,13.30
2018-05-11T01:40:53.818Z,13.40
2018-05-11T01:43:21.242Z,13.40
2018-05-11T01:45:48.678Z,13.30
2018-05-11T01:48:16.098Z,13.20
2018-05-11T01:50:43.826Z,13.20
2018-05-11T01:53:11.328Z,13.30
2018-05-11T01:55:38.743Z,13.20
2018-05-11T01:58:06.180Z,13.20
2018-05-11T02:00:33.607Z,13.20
2018-05-11T02:03:01.030Z,13.10
2018-05-11T02:05:28.450Z,13.10
2018-05-11T02:07:55.882Z,13.10
2018-05-11T02:10:24.065Z,13.00
2018-05-11T02:12:51.490Z,12.90
2018-05-11T02:15:19.679Z,12.90
2018-05-11T02:17:47.110Z,12.90
2018-05-11T02:20:14.530Z,12.80
2018-05-11T02:22:41.962Z,12.80
2018-05-11T02:25:09.378Z,12.80
2018-05-11T02:27:36.825Z,12.80
2018-05-11T02:30:04.249Z,12.80
2018-05-11T02:32:31.815Z,12.80
2018-05-11T02:34:59.238Z,12.80
2018-05-11T02:37:26.691Z,12.80
2018-05-11T02:39:54.094Z,12.70
2018-05-11T02:42:21.546Z,12.60
2018-05-11T02:44:48.963Z,12.40
2018-05-11T02:47:16.399Z,12.40
2018-05-11T02:49:44.586Z,12.30
2018-05-11T02:52:12.018Z,12.30
2018-05-11T02:54:39.442Z,12.30
2018-05-11T02:57:06.874Z,12.30
2018-05-11T02:59:34.298Z,12.30
2018-05-11T03:02:02.498Z,12.30
2018-05-11T03:04:29.935Z,12.20
2018-05-11T03:06:57.351Z,12.10
2018-05-11T03:09:24.775Z,12.10
2018-05-11T03:11:52.218Z,12.30
2018-05-11T03:14:19.647Z,12.30
2018-05-11T03:16:47.854Z,12.40
2018-05-11T03:19:15.266Z,12.30
2018-05-11T03:21:42.699Z,12.40
2018-05-11T03:24:10.128Z,12.50
2018-05-11T03:26:37.694Z,12.40
2018-05-11T03:29:05.119Z,12.40
2018-05-11T03:31:32.551Z,12.40
2018-05-11T03:33:59.970Z,12.40
2018-05-11T03:36:27.402Z,12.40
2018-05-11T03:38:54.842Z,12.30
2018-05-11T03:41:22.275Z,12.10
2018-05-11T03:43:49.695Z,12.10
2018-05-11T03:46:17.127Z,12.00
2018-05-11T03:48:44.671Z,12.00
2018-05-11T03:51:12.091Z,12.00
2018-05-11T03:53:39.519Z,11.80
2018-05-11T03:56:06.939Z,11.90
2018-05-11T03:58:34.362Z,12.00
2018-05-11T04:01:02.084Z,11.90
2018-05-11T04:03:41.336Z,11.90
2018-05-11T04:06:09.558Z,11.80
2018-05-11T04:08:42.614Z,11.80
2018-05-11T04:11:10.035Z,11.80
2018-05-11T04:13:37.458Z,11.70
2018-05-11T04:16:04.878Z,11.70
2018-05-11T04:18:32.313Z,11.60
2018-05-11T04:20:59.730Z,11.70
2018-05-11T04:23:27.162Z,11.60
2018-05-11T04:25:55.350Z,11.70
2018-05-11T04:28:22.785Z,11.70
2018-05-11T04:30:50.210Z,11.70
2018-05-11T04:33:17.638Z,11.70
2018-05-11T04:35:45.058Z,11.70
2018-05-11T04:38:13.254Z,11.60
2018-05-11T04:40:40.678Z,11.60
2018-05-11T04:43:08.118Z,11.70
2018-05-11T04:45:35.645Z,11.60
2018-05-11T04:48:03.078Z,11.70
2018-05-11T04:50:30.573Z,11.70
2018-05-11T04:52:57.995Z,11.80
2018-05-11T04:55:25.418Z,11.80
2018-05-11T04:57:52.850Z,11.80
2018-05-11T05:00:20.266Z,11.80
2018-05-11T05:02:47.702Z,11.80
2018-05-11T05:05:15.890Z,11.90
2018-05-11T05:07:43.318Z,11.90
2018-05-11T05:10:10.754Z,12.00
2018-05-11T05:12:38.188Z,12.00
2018-05-11T05:15:05.622Z,12.00
2018-05-11T05:17:33.039Z,12.10
2018-05-11T05:20:01.243Z,12.10
2018-05-11T05:22:28.659Z,12.10
2018-05-11T05:24:56.115Z,12.20
2018-05-11T05:27:23.538Z,12.20
2018-05-11T05:29:50.967Z,12.20
2018-05-11T05:32:18.418Z,12.30
2018-05-11T05:34:45.838Z,12.30
2018-05-11T05:37:13.258Z,12.30
2018-05-11T05:39:40.690Z,12.40
2018-05-11T05:42:08.113Z,12.40
2018-05-11T05:44:35.547Z,12.40
2018-05-11T05:47:02.967Z,12.40
2018-05-11T05:49:30.398Z,12.50
2018-05-11T05:51:57.856Z,12.50
2018-05-11T05:54:25.259Z,12.50
2018-05-11T05:56:52.696Z,12.60
2018-05-11T05:59:20.130Z,12.60
2018-05-11T06:01:47.567Z,14.40
2018-05-11T06:04:15.771Z,12.70
2018-05-11T06:06:43.197Z,12.70
2018-05-11T06:09:10.639Z,12.80
2018-05-11T06:11:38.058Z,12.90
2018-05-11T06:14:05.495Z,13.00
2018-05-11T06:16:32.922Z,13.00
2018-05-11T06:19:01.123Z,13.20
2018-05-11T06:21:28.551Z,13.10
2018-05-11T06:23:55.986Z,13.20
2018-05-11T06:26:23.502Z,13.30
2018-05-11T06:28:50.956Z,13.30
2018-05-11T06:31:18.374Z,13.40
2018-05-11T06:33:45.816Z,13.40
2018-05-11T06:36:13.234Z,13.40
2018-05-11T06:38:40.671Z,13.60
2018-05-11T06:41:08.099Z,13.60
2018-05-11T06:43:36.308Z,13.80
2018-05-11T06:46:03.751Z,13.80
2018-05-11T06:48:31.168Z,13.90
2018-05-11T06:50:58.594Z,14.00
2018-05-11T06:53:26.027Z,14.10
2018-05-11T06:55:53.517Z,14.10
2018-05-11T06:58:20.942Z,14.20
2018-05-11T07:00:48.365Z,14.30
2018-05-11T07:03:16.563Z,14.40
2018-05-11T07:05:43.982Z,14.40
2018-05-11T07:08:11.418Z,14.50
2018-05-11T07:10:38.874Z,14.60
2018-05-11T07:13:07.070Z,14.70
2018-05-11T07:15:34.683Z,14.70
2018-05-11T07:18:02.118Z,14.80
2018-05-11T07:20:29.555Z,14.90
2018-05-11T07:22:57.750Z,15.00
2018-05-11T07:25:25.218Z,15.00
2018-05-11T07:27:52.654Z,15.10
2018-05-11T07:30:20.135Z,15.20
2018-05-11T07:32:47.563Z,15.30
2018-05-11T07:35:15.004Z,15.30
2018-05-11T07:37:42.429Z,15.40
2018-05-11T07:40:09.858Z,15.50
2018-05-11T07:42:38.274Z,15.60
2018-05-11T07:45:05.711Z,15.60
2018-05-11T07:47:33.135Z,15.70
2018-05-11T07:50:00.567Z,15.80
2018-05-11T07:52:28.005Z,15.90
2018-05-11T07:54:55.442Z,15.90
2018-05-11T07:57:22.878Z,16.10
2018-05-11T07:59:50.310Z,16.10
2018-05-11T08:02:17.860Z,16.20
2018-05-11T08:04:45.322Z,16.20
2018-05-11T08:07:12.746Z,16.30
2018-05-11T08:09:40.947Z,16.40
2018-05-11T08:12:08.386Z,16.40
2018-05-11T08:14:35.917Z,16.50
2018-05-11T08:17:03.247Z,16.60
2018-05-11T08:19:30.674Z,16.70
2018-05-11T08:21:58.098Z,16.70
2018-05-11T08:24:26.306Z,16.80
2018-05-11T08:26:53.898Z,16.80
2018-05-11T08:29:21.178Z,16.90
2018-05-11T08:31:48.597Z,17.00
2018-05-11T08:34:16.057Z,17.10
2018-05-11T08:36:43.483Z,17.20
2018-05-11T08:39:10.916Z,17.20
2018-05-11T08:41:39.106Z,17.20
2018-05-11T08:44:06.560Z,17.20
2018-05-11T08:46:33.968Z,17.30
2018-05-11T08:49:01.398Z,17.40
2018-05-11T08:51:28.957Z,17.50
2018-05-11T08:53:56.387Z,17.50
2018-05-11T08:56:23.807Z,17.50
2018-05-11T08:58:51.248Z,17.60
2018-05-11T09:01:18.684Z,17.60
2018-05-11T09:03:46.124Z,17.60
2018-05-11T09:06:13.690Z,17.70
2018-05-11T09:08:41.204Z,17.80
2018-05-11T09:11:08.606Z,18.00
2018-05-11T09:13:36.979Z,18.30
2018-05-11T09:16:04.404Z,18.20
2018-05-11T09:18:31.843Z,18.30
2018-05-11T09:20:59.272Z,18.40
2018-05-11T09:23:26.695Z,18.50
2018-05-11T09:25:54.187Z,18.70
2018-05-11T09:28:21.615Z,18.70
2018-05-11T09:30:49.086Z,18.70
2018-05-11T09:33:16.510Z,18.80
2018-05-11T09:35:43.946Z,18.80
2018-05-11T09:38:12.158Z,19.00
2018-05-11T09:40:39.594Z,19.00
2018-05-11T09:43:07.018Z,19.00
2018-05-11T09:45:34.528Z,19.20
2018-05-11T09:48:01.951Z,19.40
2018-05-11T09:50:29.386Z,19.50
2018-05-11T09:52:56.810Z,19.60
2018-05-11T09:55:24.243Z,19.70
2018-05-11T09:57:51.670Z,19.80
2018-05-11T10:00:25.662Z,19.90
2018-05-11T10:02:53.091Z,19.90
2018-05-11T10:05:20.525Z,19.90
2018-05-11T10:07:47.998Z,20.00
2018-05-11T10:10:15.424Z,20.20
2018-05-11T10:12:42.998Z,20.30
2018-05-11T10:15:10.433Z,20.50
2018-05-11T10:17:37.854Z,20.50
2018-05-11T10:20:05.286Z,20.70
2018-05-11T10:22:32.779Z,20.80
2018-05-11T10:25:00.211Z,21.00
2018-05-11T10:27:27.641Z,21.00
2018-05-11T10:29:55.187Z,21.20
2018-05-11T10:32:22.610Z,21.20
2018-05-11T10:34:50.042Z,21.40
2018-05-11T10:37:18.231Z,21.60
2018-05-11T10:39:45.730Z,21.60
2018-05-11T10:42:13.095Z,21.60
2018-05-11T10:44:40.548Z,21.60
2018-05-11T10:47:07.951Z,21.60
2018-05-11T10:49:35.418Z,21.40
2018-05-11T10:52:02.846Z,21.40
2018-05-11T10:54:30.370Z,21.60
2018-05-11T10:56:57.798Z,21.70
2018-05-11T10:59:25.236Z,21.80
2018-05-11T11:01:52.654Z,22.00
2018-05-11T11:04:20.091Z,22.00
2018-05-11T11:06:47.514Z,22.00
2018-05-11T11:09:15.012Z,21.90
2018-05-11T11:11:42.478Z,22.00
2018-05-11T11:14:09.919Z,22.10
2018-05-11T11:16:37.346Z,22.20
2018-05-11T11:19:04.794Z,22.40
2018-05-11T11:21:32.299Z,22.60
2018-05-11T11:23:59.838Z,22.70
2018-05-11T11:26:27.270Z,22.70
2018-05-11T11:28:54.695Z,22.80
2018-05-11T11:31:22.130Z,22.90
2018-05-11T11:33:49.566Z,22.90
2018-05-11T11:36:16.997Z,23.00
2018-05-11T11:38:44.418Z,23.10
2018-05-11T11:41:11.851Z,23.40
2018-05-11T11:43:39.273Z,23.60
2018-05-11T11:46:06.703Z,23.70
2018-05-11T11:48:34.118Z,23.90
2018-05-11T11:51:01.548Z,24.00
2018-05-11T11:53:28.966Z,23.90
2018-05-11T11:55:56.395Z,23.80
2018-05-11T11:58:23.814Z,24.00
2018-05-11T12:00:51.286Z,24.10
2018-05-11T12:03:18.738Z,24.10
2018-05-11T12:05:46.166Z,24.10
2018-05-11T12:08:13.588Z,24.10
2018-05-11T12:10:41.014Z,24.30
2018-05-11T12:13:08.439Z,24.40
2018-05-11T12:15:36.154Z,24.60
2018-05-11T12:18:03.607Z,24.90
2018-05-11T12:20:31.143Z,25.00
2018-05-11T12:22:58.562Z,25.10
2018-05-11T12:25:25.999Z,25.30
2018-05-11T12:27:53.574Z,25.30
2018-05-11T12:30:20.998Z,25.60
2018-05-11T12:32:48.418Z,26.00
2018-05-11T12:35:15.982Z,26.10
2018-05-11T12:37:43.406Z,27.00
2018-05-11T12:40:10.830Z,28.00
2018-05-11T12:42:39.018Z,30.90
2018-05-11T12:45:06.447Z,30.80
2018-05-11T12:47:33.871Z,31.50
2018-05-11T12:50:01.295Z,31.90
2018-05-11T12:52:28.722Z,31.20
2018-05-11T12:54:56.143Z,30.60
2018-05-11T12:57:23.674Z,30.40
2018-05-11T12:59:51.098Z,29.90
2018-05-11T13:02:19.293Z,29.50
2018-05-11T13:04:46.778Z,29.50
2018-05-11T13:07:14.235Z,30.10
2018-05-11T13:09:41.639Z,30.70
2018-05-11T13:12:09.066Z,30.00
2018-05-11T13:14:36.502Z,29.30
2018-05-11T13:17:03.930Z,28.80
2018-05-11T13:19:31.350Z,28.20
2018-05-11T13:21:58.778Z,28.60
2018-05-11T13:24:26.202Z,28.50
2018-05-11T13:26:53.630Z,28.60
2018-05-11T13:29:21.066Z,29.50
2018-05-11T13:31:48.507Z,29.90
2018-05-11T13:34:15.995Z,29.40
2018-05-11T13:36:43.423Z,28.60
2018-05-11T13:39:10.849Z,28.40
2018-05-11T13:41:38.280Z,28.10
2018-05-11T13:44:05.699Z,27.50
2018-05-11T13:46:33.894Z,26.70
2018-05-11T13:49:01.319Z,26.70
2018-05-11T13:51:28.754Z,26.50
2018-05-11T13:53:56.174Z,26.70
2018-05-11T13:56:23.633Z,26.60
2018-05-11T13:58:51.122Z,26.50
2018-05-11T14:01:18.564Z,26.80
2018-05-11T14:03:45.984Z,27.60
2018-05-11T14:06:13.410Z,27.80
2018-05-11T14:08:40.846Z,28.00
2018-05-11T14:11:08.402Z,28.60
2018-05-11T14:13:35.834Z,28.70
2018-05-11T14:16:03.250Z,29.10
2018-05-11T14:18:30.682Z,29.50
2018-05-11T14:20:58.183Z,29.70
2018-05-11T14:23:25.534Z,30.00
2018-05-11T14:25:53.718Z,30.10
2018-05-11T14:28:21.147Z,30.00
2018-05-11T14:30:48.666Z,29.50
2018-05-11T14:33:16.121Z,28.70
2018-05-11T14:35:43.538Z,28.50
2018-05-11T14:38:10.974Z,28.70
2018-05-11T14:40:38.404Z,28.70
2018-05-11T14:43:05.958Z,28.30
2018-05-11T14:45:33.392Z,28.30
2018-05-11T14:48:00.822Z,28.30
2018-05-11T14:50:28.243Z,28.20
2018-05-11T14:52:55.675Z,28.10
2018-05-11T14:55:23.098Z,28.20
2018-05-11T14:57:50.536Z,28.00
2018-05-11T15:00:18.758Z,27.90
2018-05-11T15:02:46.192Z,27.80
2018-05-11T15:05:13.620Z,27.90
2018-05-11T15:07:41.042Z,27.90
2018-05-11T15:10:08.511Z,28.30
2018-05-11T15:12:35.943Z,28.50
2018-05-11T15:15:03.366Z,28.50
2018-05-11T15:17:30.795Z,28.80
2018-05-11T15:19:58.982Z,29.10
2018-05-11T15:22:26.402Z,29.10
2018-05-11T15:24:53.831Z,29.40
2018-05-11T15:27:21.259Z,29.50
2018-05-11T15:29:49.448Z,29.30
2018-05-11T15:32:16.873Z,29.30
2018-05-11T15:34:44.298Z,29.40
2018-05-11T15:37:12.484Z,29.10
2018-05-11T15:39:39.906Z,29.10
2018-05-11T15:42:07.327Z,29.20
2018-05-11T15:44:34.760Z,29.30
2018-05-11T15:47:02.175Z,29.10
2018-05-11T15:49:29.618Z,28.80
2018-05-11T15:51:57.044Z,28.60
2018-05-11T15:54:24.474Z,28.40
2018-05-11T15:56:51.898Z,28.20
2018-05-11T15:59:19.336Z,28.10
2018-05-11T16:01:47.006Z,28.00
2018-05-11T16:04:14.434Z,27.80
2018-05-11T16:06:41.914Z,27.50
2018-05-11T16:09:09.346Z,27.20
2018-05-11T16:11:36.766Z,27.30
2018-05-11T16:14:04.202Z,26.90
2018-05-11T16:16:31.626Z,27.00
2018-05-11T16:18:59.062Z,26.60
2018-05-11T16:21:27.242Z,26.10
2018-05-11T16:23:54.671Z,26.10
2018-05-11T16:26:22.093Z,26.00
2018-05-11T16:28:49.518Z,25.80
2018-05-11T16:31:16.995Z,25.80
2018-05-11T16:33:44.543Z,25.80
2018-05-11T16:36:11.964Z,25.80
2018-05-11T16:38:39.390Z,25.80
2018-05-11T16:41:06.815Z,25.70
2018-05-11T16:43:34.242Z,25.70
2018-05-11T16:46:01.666Z,25.70
2018-05-11T16:48:29.194Z,25.70
2018-05-11T16:50:56.614Z,25.60
2018-05-11T16:53:24.199Z,25.60
2018-05-11T16:55:51.622Z,25.60
2018-05-11T16:58:19.051Z,25.60
2018-05-11T17:00:46.475Z,25.70
2018-05-11T17:03:13.910Z,25.70
2018-05-11T17:05:41.332Z,25.60
2018-05-11T17:08:09.555Z,25.40
2018-05-11T17:10:36.946Z,25.30
2018-05-11T17:13:05.283Z,25.40
2018-05-11T17:15:32.714Z,25.30
2018-05-11T17:18:00.134Z,25.40
2018-05-11T17:20:27.563Z,25.20
2018-05-11T17:22:55.045Z,25.00
2018-05-11T17:25:22.413Z,24.90
2018-05-11T17:27:50.027Z,24.80
2018-05-11T17:30:17.462Z,24.70
2018-05-11T17:32:44.936Z,24.60
2018-05-11T17:35:12.362Z,24.50
2018-05-11T17:37:39.790Z,24.40
2018-05-11T17:40:07.991Z,24.20
2018-05-11T17:42:35.411Z,24.20
2018-05-11T17:45:02.926Z,24.10
2018-05-11T17:47:30.351Z,24.00
2018-05-11T17:49:57.783Z,23.90
2018-05-11T17:52:25.208Z,23.80
2018-05-11T17:54:52.635Z,23.70
2018-05-11T17:57:20.056Z,23.70
2018-05-11T17:59:48.250Z,23.50
2018-05-11T18:02:15.674Z,23.50
2018-05-11T18:04:43.190Z,23.40
2018-05-11T18:07:10.610Z,23.40
2018-05-11T18:09:38.038Z,23.30
2018-05-11T18:12:05.545Z,23.30
2018-05-11T18:14:32.885Z,23.20
2018-05-11T18:17:01.087Z,23.00
2018-05-11T18:19:28.519Z,22.90
2018-05-11T18:21:55.950Z,22.80
2018-05-11T18:24:23.382Z,22.80
2018-05-11T18:26:50.810Z,22.70
2018-05-11T18:29:18.246Z,22.60
2018-05-11T18:31:45.699Z,22.60
2018-05-11T18:34:13.481Z,22.60
2018-05-11T18:39:14.830Z,22.40
2018-05-11T18:41:42.310Z,22.40
2018-05-11T18:44:09.738Z,22.30
2018-05-11T18:46:37.270Z,22.30
2018-05-11T18:49:04.778Z,22.20
2018-05-11T18:51:32.235Z,22.20
2018-05-11T18:54:00.135Z,22.00
2018-05-11T18:56:27.110Z,21.90
2018-05-11T18:58:54.603Z,21.80
2018-05-11T19:01:22.026Z,21.80
2018-05-11T19:03:49.465Z,21.70
2018-05-11T19:06:16.886Z,21.60
2018-05-11T19:08:44.327Z,21.50
2018-05-11T19:11:11.774Z,21.50
2018-05-11T19:13:39.338Z,21.30
2018-05-11T19:16:06.775Z,21.20
2018-05-11T19:18:34.198Z,21.10
2018-05-11T19:21:01.658Z,21.10
2018-05-11T19:23:29.082Z,21.00
2018-05-11T19:25:56.518Z,21.00
2018-05-11T19:28:23.950Z,20.80
2018-05-11T19:30:52.144Z,20.70
2018-05-11T19:35:53.375Z,20.60
2018-05-11T19:38:20.803Z,20.50
2018-05-11T19:40:48.419Z,20.50
2018-05-11T19:43:15.842Z,20.30
2018-05-11T19:45:43.330Z,20.40
2018-05-11T19:48:10.747Z,20.30
2018-05-11T19:50:38.167Z,20.30
2018-05-11T19:53:05.595Z,20.30
2018-05-11T19:55:33.031Z,20.20
2018-05-11T19:58:00.486Z,20.10
2018-05-11T20:00:27.919Z,20.00
2018-05-11T20:02:56.106Z,20.10
2018-05-11T20:05:23.543Z,20.10
2018-05-11T20:07:50.966Z,20.10
2018-05-11T20:10:18.695Z,19.90
2018-05-11T20:12:46.156Z,19.80
2018-05-11T20:15:14.321Z,19.80
2018-05-11T20:17:41.742Z,19.80
2018-05-11T20:20:09.263Z,19.70
2018-05-11T20:22:36.682Z,19.60
2018-05-11T20:25:04.115Z,19.60
2018-05-11T20:27:31.538Z,19.60
2018-05-11T20:29:58.977Z,19.60
2018-05-11T20:32:26.598Z,19.60
2018-05-11T20:34:53.991Z,19.60
2018-05-11T20:37:21.395Z,19.50
2018-05-11T20:39:48.906Z,19.30
2018-05-11T20:42:16.330Z,19.30
2018-05-11T20:44:43.763Z,19.20
2018-05-11T20:47:12.007Z,19.10
2018-05-11T20:49:39.615Z,19.00
2018-05-11T20:52:07.046Z,19.00
2018-05-11T20:54:34.478Z,18.90
2018-05-11T20:57:01.905Z,18.90
2018-05-11T20:59:29.479Z,18.90
2018-05-11T21:01:56.911Z,18.80
2018-05-11T21:04:24.346Z,18.70
2018-05-11T21:06:51.766Z,18.50
2018-05-11T21:09:19.298Z,18.50
2018-05-11T21:11:46.734Z,18.50
2018-05-11T21:14:14.159Z,18.40
2018-05-11T21:16:41.590Z,18.40
2018-05-11T21:19:09.130Z,18.40
2018-05-11T21:21:36.766Z,18.40
2018-05-11T21:24:04.191Z,18.40
2018-05-11T21:26:31.627Z,18.30
2018-05-11T21:28:59.050Z,18.30
2018-05-11T21:31:26.718Z,18.10
2018-05-11T21:33:54.174Z,18.00
2018-05-11T21:36:21.607Z,17.90
2018-05-11T21:38:49.031Z,17.90
2018-05-11T21:41:16.646Z,18.00
2018-05-11T21:43:43.971Z,17.80
2018-05-11T21:46:11.399Z,17.80
2018-05-11T21:48:38.822Z,17.80
2018-05-11T21:51:06.339Z,17.70
2018-05-11T21:53:33.818Z,17.60
2018-05-11T21:56:01.251Z,17.60
2018-05-11T21:58:28.674Z,17.50
2018-05-11T22:00:56.110Z,17.60
2018-05-11T22:03:23.530Z,17.40
2018-05-11T22:05:51.028Z,17.30
2018-05-11T22:08:18.559Z,17.30
2018-05-11T22:10:46.019Z,17.20
2018-05-11T22:13:13.438Z,17.20
2018-05-11T22:15:40.869Z,17.20
2018-05-11T22:18:08.298Z,17.20
2018-05-11T22:20:35.732Z,17.10
2018-05-11T22:23:03.152Z,17.10
2018-05-11T22:25:31.351Z,17.10
2018-05-11T22:27:58.844Z,17.00
2018-05-11T22:30:26.259Z,17.00
2018-05-11T22:32:53.670Z,16.90
2018-05-11T22:35:21.190Z,16.90
2018-05-11T22:37:48.615Z,16.90
2018-05-11T22:40:16.136Z,16.80
2018-05-11T22:42:43.738Z,16.70
2018-05-11T22:45:11.170Z,16.60
2018-05-11T22:47:39.363Z,16.40
2018-05-11T22:50:06.858Z,16.40
2018-05-11T22:52:34.274Z,16.50
2018-05-11T22:55:01.715Z,16.50
2018-05-11T22:57:29.138Z,16.40
2018-05-11T22:59:56.678Z,16.40
2018-05-11T23:02:24.098Z,16.40
2018-05-11T23:04:51.522Z,16.40
2018-05-11T23:07:18.955Z,16.40
2018-05-11T23:09:46.379Z,16.40
2018-05-11T23:12:13.830Z,16.30
2018-05-11T23:14:41.318Z,16.40
2018-05-11T23:17:08.779Z,16.30
2018-05-11T23:19:36.202Z,16.30
2018-05-11T23:22:03.638Z,16.30
2018-05-11T23:24:31.829Z,16.20
2018-05-11T23:26:59.275Z,16.20
2018-05-11T23:29:26.699Z,16.20
2018-05-11T23:31:54.130Z,16.20
2018-05-11T23:34:21.556Z,16.10
2018-05-11T23:36:49.049Z,16.10
2018-05-11T23:39:16.490Z,16.10
2018-05-11T23:41:43.926Z,16.10
2018-05-11T23:44:11.350Z,16.10
2018-05-11T23:46:39.575Z,16.10
2018-05-11T23:49:06.999Z,16.00
2018-05-11T23:51:34.431Z,15.90
2018-05-11T23:54:01.854Z,15.90
2018-05-11T23:56:29.287Z,15.80
2018-05-11T23:58:56.706Z,15.80
